Harskamp, Netherlands
Current Conditions -  °F | °C
As of 12:25 PM on Friday 24 Oct 2014 (Local Time) from EHDL Reporting Station
Light Rain Light Rain  
Wind Chill: 52°   Ceiling: 1500
Heat Index: 52°   Visibility: 6mi
Dew Point: 48°   Wind: 12mph
Humidity: 88%   Direction: 190°S
Pressure: 30.09"   Gusts: NA
Location:  52.13°N, 5.75°E
Report Text: EHDL 241025Z AUTO 19010KT 9999 -RA BKN015 OVC043 11/09 Q1019 RERA REDZ WHT
Loading
Personal Weather Stations






























Interactive Weather Map
Tropical Storm Tracking
New forecast layout! Learn more

10-Day Weather Forecast

Advertisements
Track Severe Weather on mobile